createdAt,value
2019-01-09T00:01:04.942Z,2.50
2019-01-09T00:03:34.831Z,2.20
2019-01-09T00:06:04.632Z,2.40
2019-01-09T00:08:34.183Z,2.30
2019-01-09T00:11:04.065Z,2.20
2019-01-09T00:13:33.628Z,2.53
2019-01-09T00:16:05.251Z,2.37
2019-01-09T00:18:34.827Z,2.20
2019-01-09T00:21:04.616Z,2.53
2019-01-09T00:23:34.152Z,2.70
2019-01-09T00:26:03.768Z,2.63
2019-01-09T00:28:33.492Z,2.90
2019-01-09T00:31:03.309Z,2.60
2019-01-09T00:33:32.993Z,2.87
2019-01-09T00:36:02.650Z,2.37
2019-01-09T00:38:32.555Z,2.40
2019-01-09T00:41:02.322Z,2.70
2019-01-09T00:43:31.824Z,3.13
2019-01-09T00:46:01.470Z,2.63
2019-01-09T00:48:31.433Z,2.67
2019-01-09T00:51:01.128Z,2.40
2019-01-09T00:53:30.878Z,2.30
2019-01-09T00:56:00.594Z,2.50
2019-01-09T00:58:30.322Z,2.60
2019-01-09T01:01:00.032Z,2.73
2019-01-09T01:06:13.486Z,2.50
2019-01-09T01:08:47.496Z,2.37
2019-01-09T01:14:02.879Z,2.27
2019-01-09T01:16:36.902Z,2.30
2019-01-09T01:19:11.283Z,2.37
2019-01-09T01:21:45.295Z,2.37
2019-01-09T01:24:19.383Z,2.53
2019-01-09T01:26:53.422Z,2.10
2019-01-09T01:29:27.474Z,2.43
2019-01-09T01:32:01.514Z,2.60
2019-01-09T01:34:36.271Z,2.27
2019-01-09T01:37:10.283Z,2.23
2019-01-09T01:39:44.340Z,2.27
2019-01-09T01:45:04.585Z,2.40
2019-01-09T01:47:38.607Z,2.30
2019-01-09T01:50:13.095Z,2.50
2019-01-09T01:52:47.133Z,1.93
2019-01-09T01:55:21.152Z,2.27
2019-01-09T01:57:55.163Z,2.47
2019-01-09T02:00:29.592Z,1.93
2019-01-09T02:03:03.972Z,2.23
2019-01-09T02:05:38.229Z,2.13
2019-01-09T02:08:12.265Z,1.90
2019-01-09T02:11:04.102Z,2.17
2019-01-09T02:13:39.157Z,2.37
2019-01-09T02:16:13.216Z,1.87
2019-01-09T02:18:47.255Z,1.90
2019-01-09T02:21:21.327Z,2.27
2019-01-09T02:23:55.376Z,1.93
2019-01-09T02:26:47.580Z,1.73
2019-01-09T02:29:21.592Z,2.00
2019-01-09T02:31:56.045Z,2.23
2019-01-09T02:34:44.902Z,1.93
2019-01-09T02:37:14.490Z,1.73
2019-01-09T02:39:44.150Z,2.10
2019-01-09T02:42:13.725Z,2.03
2019-01-09T02:44:43.308Z,1.90
2019-01-09T02:47:12.896Z,1.97
2019-01-09T02:49:42.501Z,1.47
2019-01-09T02:52:13.553Z,1.53
2019-01-09T02:54:43.135Z,1.60
2019-01-09T02:57:12.786Z,1.30
2019-01-09T02:59:42.701Z,1.47
2019-01-09T03:02:12.398Z,1.33
2019-01-09T03:04:43.510Z,1.50
2019-01-09T03:07:13.313Z,1.30
2019-01-09T03:09:42.852Z,1.27
2019-01-09T03:12:12.500Z,1.30
2019-01-09T03:14:42.369Z,1.40
2019-01-09T03:17:11.989Z,1.60
2019-01-09T03:19:41.580Z,1.37
2019-01-09T03:22:11.156Z,1.57
2019-01-09T03:24:40.716Z,1.63
2019-01-09T03:27:10.301Z,1.30
2019-01-09T03:29:39.876Z,1.50
2019-01-09T03:32:09.445Z,1.63
2019-01-09T03:34:38.992Z,1.67
2019-01-09T03:37:08.875Z,1.50
2019-01-09T03:39:38.439Z,1.60
2019-01-09T03:42:07.938Z,1.13
2019-01-09T03:44:37.495Z,1.50
2019-01-09T03:47:26.353Z,1.43
2019-01-09T03:49:55.962Z,1.83
2019-01-09T03:52:25.541Z,1.30
2019-01-09T03:54:55.102Z,1.57
2019-01-09T03:57:24.696Z,1.70
2019-01-09T03:59:54.287Z,1.37
2019-01-09T04:02:23.869Z,1.60
2019-01-09T04:04:53.541Z,1.50
2019-01-09T04:07:23.112Z,1.73
2019-01-09T04:09:52.692Z,1.40
2019-01-09T04:12:22.821Z,1.60
2019-01-09T04:14:52.422Z,1.40
2019-01-09T04:17:21.983Z,1.63
2019-01-09T04:19:53.791Z,1.57
2019-01-09T04:22:23.344Z,1.40
2019-01-09T04:24:52.898Z,1.40
2019-01-09T04:27:22.496Z,1.47
2019-01-09T04:29:52.056Z,1.20
2019-01-09T04:32:21.645Z,1.37
2019-01-09T04:34:51.218Z,1.50
2019-01-09T04:37:20.797Z,1.30
2019-01-09T04:39:50.381Z,1.80
2019-01-09T04:42:19.944Z,1.40
2019-01-09T04:44:49.541Z,1.37
2019-01-09T04:47:19.114Z,1.47
2019-01-09T04:49:48.963Z,1.47
2019-01-09T04:52:18.529Z,1.60
2019-01-09T04:54:48.123Z,1.80
2019-01-09T04:57:17.717Z,1.63
2019-01-09T04:59:47.275Z,1.30
2019-01-09T05:02:16.860Z,1.30
2019-01-09T05:04:49.398Z,1.53
2019-01-09T05:07:19.243Z,1.67
2019-01-09T05:09:48.796Z,1.60
2019-01-09T05:12:18.412Z,1.30
2019-01-09T05:14:47.995Z,1.87
2019-01-09T05:17:17.727Z,1.93
2019-01-09T05:19:47.337Z,1.87
2019-01-09T05:22:16.887Z,1.97
2019-01-09T05:24:46.574Z,1.53
2019-01-09T05:27:16.559Z,1.87
2019-01-09T05:29:46.192Z,1.90
2019-01-09T05:32:15.757Z,1.60
2019-01-09T05:34:45.373Z,1.80
2019-01-09T05:37:14.959Z,2.00
2019-01-09T05:39:44.536Z,1.87
2019-01-09T05:42:14.132Z,1.80
2019-01-09T05:44:43.753Z,2.27
2019-01-09T05:47:13.346Z,2.00
2019-01-09T05:49:42.933Z,2.00
2019-01-09T05:52:12.486Z,1.90
2019-01-09T05:54:42.035Z,2.20
2019-01-09T05:57:11.640Z,2.10
2019-01-09T05:59:41.292Z,2.40
2019-01-09T06:02:10.889Z,2.43
2019-01-09T06:04:40.465Z,2.70
2019-01-09T06:07:18.076Z,2.00
2019-01-09T06:09:41.353Z,2.30
2019-01-09T06:12:16.814Z,2.27
2019-01-09T06:14:46.496Z,2.40
2019-01-09T06:17:16.114Z,2.43
2019-01-09T06:19:45.715Z,2.30
2019-01-09T06:22:21.140Z,2.33
2019-01-09T06:24:51.247Z,2.70
2019-01-09T06:27:20.914Z,2.40
2019-01-09T06:29:50.448Z,2.17
2019-01-09T06:32:20.061Z,2.80
2019-01-09T06:34:50.508Z,2.47
2019-01-09T06:37:27.332Z,2.00
2019-01-09T06:39:51.659Z,2.40
2019-01-09T06:42:21.225Z,2.00
2019-01-09T06:44:50.806Z,1.83
2019-01-09T06:47:21.784Z,2.87
2019-01-09T06:49:51.345Z,2.43
2019-01-09T06:52:21.038Z,2.63
2019-01-09T06:54:50.640Z,2.30
2019-01-09T06:57:20.184Z,2.47
2019-01-09T06:59:49.780Z,2.63
2019-01-09T07:02:19.367Z,2.47
2019-01-09T07:04:48.954Z,2.50
2019-01-09T07:07:18.575Z,3.03
2019-01-09T07:09:48.180Z,2.40
2019-01-09T07:12:17.753Z,2.70
2019-01-09T07:14:47.299Z,2.70
2019-01-09T07:17:17.207Z,2.50
2019-01-09T07:19:46.801Z,2.70
2019-01-09T07:22:16.351Z,2.07
2019-01-09T07:24:45.985Z,2.50
2019-01-09T07:27:15.564Z,2.47
2019-01-09T07:29:45.238Z,2.47
2019-01-09T07:32:14.862Z,2.80
2019-01-09T07:34:44.444Z,2.00
2019-01-09T07:37:14.034Z,2.70
2019-01-09T07:39:43.615Z,2.20
2019-01-09T07:42:13.183Z,2.33
2019-01-09T07:44:42.797Z,2.03
2019-01-09T07:47:12.799Z,2.33
2019-01-09T07:49:42.556Z,2.07
2019-01-09T07:52:12.151Z,2.10
2019-01-09T07:54:47.598Z,2.50
2019-01-09T07:57:17.015Z,2.23
2019-01-09T07:59:46.889Z,2.20
2019-01-09T08:02:16.518Z,2.73
2019-01-09T08:04:46.064Z,2.00
2019-01-09T08:07:15.833Z,2.10
2019-01-09T08:09:45.444Z,3.00
2019-01-09T08:12:15.056Z,2.47
2019-01-09T08:14:44.634Z,1.73
2019-01-09T08:17:14.217Z,2.10
2019-01-09T08:19:43.803Z,2.07
2019-01-09T08:22:13.381Z,2.47
2019-01-09T08:24:42.984Z,2.10
2019-01-09T08:27:18.608Z,2.20
2019-01-09T08:29:48.167Z,2.23
2019-01-09T08:32:18.128Z,1.93
2019-01-09T08:34:47.759Z,2.17
2019-01-09T08:37:17.336Z,2.17
2019-01-09T08:39:46.933Z,2.10
2019-01-09T08:42:16.655Z,1.83
2019-01-09T08:44:46.237Z,1.67
2019-01-09T08:47:15.832Z,1.83
2019-01-09T08:49:45.409Z,1.93
2019-01-09T08:52:14.980Z,1.70
2019-01-09T08:54:44.597Z,1.73
2019-01-09T08:57:14.181Z,1.57
2019-01-09T08:59:43.765Z,2.00
2019-01-09T09:02:13.754Z,1.80
2019-01-09T09:04:43.340Z,1.57
2019-01-09T09:07:12.903Z,1.40
2019-01-09T09:09:42.678Z,1.77
2019-01-09T09:12:12.238Z,1.30
2019-01-09T09:14:41.897Z,1.30
2019-01-09T09:17:11.484Z,1.27
2019-01-09T09:19:41.068Z,1.67
2019-01-09T09:22:10.689Z,1.50
2019-01-09T09:24:40.287Z,1.90
2019-01-09T09:27:09.911Z,1.90
2019-01-09T09:29:39.494Z,1.60
2019-01-09T09:32:08.891Z,2.03
2019-01-09T09:34:38.780Z,1.70
2019-01-09T09:37:08.441Z,1.30
2019-01-09T09:39:38.020Z,1.50
2019-01-09T09:42:07.655Z,1.37
2019-01-09T09:44:37.241Z,1.40
2019-01-09T09:47:06.868Z,1.50
2019-01-09T09:49:36.456Z,1.30
2019-01-09T09:52:06.080Z,1.20
2019-01-09T09:54:35.720Z,1.30
2019-01-09T09:57:05.401Z,1.40
2019-01-09T09:59:36.563Z,1.20
2019-01-09T10:02:09.842Z,1.30
2019-01-09T10:04:41.150Z,1.30
2019-01-09T10:07:10.711Z,1.43
2019-01-09T10:09:40.456Z,1.30
2019-01-09T10:12:10.144Z,1.30
2019-01-09T10:14:39.707Z,1.13
2019-01-09T10:17:09.408Z,1.30
2019-01-09T10:19:40.269Z,1.70
2019-01-09T10:22:09.860Z,1.93
2019-01-09T10:24:39.456Z,2.43
2019-01-09T10:27:09.049Z,1.50
2019-01-09T10:29:38.634Z,1.90
2019-01-09T10:32:08.686Z,2.17
2019-01-09T10:34:38.352Z,2.03
2019-01-09T10:37:08.009Z,2.37
2019-01-09T10:39:37.634Z,1.80
2019-01-09T10:42:08.270Z,1.93
2019-01-09T10:44:38.108Z,1.97
2019-01-09T10:47:08.018Z,2.00
2019-01-09T10:49:37.691Z,2.00
2019-01-09T10:52:07.273Z,3.03
2019-01-09T10:54:36.882Z,2.63
2019-01-09T10:57:06.871Z,2.33
2019-01-09T10:59:36.449Z,2.87
2019-01-09T11:02:06.371Z,2.53
2019-01-09T11:04:35.945Z,2.20
2019-01-09T11:07:05.360Z,2.47
2019-01-09T11:09:34.967Z,2.60
2019-01-09T11:12:04.879Z,2.70
2019-01-09T11:14:34.477Z,3.07
2019-01-09T11:17:04.149Z,2.93
2019-01-09T11:19:33.733Z,3.00
2019-01-09T11:22:03.317Z,3.03
2019-01-09T11:24:33.062Z,3.27
2019-01-09T11:27:02.668Z,2.90
2019-01-09T11:29:32.262Z,3.20
2019-01-09T11:32:01.837Z,3.07
2019-01-09T11:34:32.922Z,3.20
2019-01-09T11:37:02.473Z,3.17
2019-01-09T11:39:32.132Z,2.77
2019-01-09T11:42:12.206Z,2.97
2019-01-09T11:44:41.816Z,3.07
2019-01-09T11:47:11.561Z,2.70
2019-01-09T11:49:41.101Z,2.60
2019-01-09T11:52:16.859Z,3.00
2019-01-09T11:54:46.532Z,2.67
2019-01-09T11:57:16.540Z,3.20
2019-01-09T11:59:46.147Z,3.47
2019-01-09T12:02:22.019Z,2.40
2019-01-09T12:04:47.012Z,2.70
2019-01-09T12:07:16.719Z,2.30
2019-01-09T12:09:46.275Z,2.70
2019-01-09T12:12:15.838Z,2.70
2019-01-09T12:14:45.429Z,2.57
2019-01-09T12:17:15.112Z,2.17
2019-01-09T12:19:44.696Z,2.20
2019-01-09T12:22:20.252Z,2.60
2019-01-09T12:24:49.823Z,2.23
2019-01-09T12:27:19.408Z,2.40
2019-01-09T12:29:49.019Z,2.03
2019-01-09T12:32:18.570Z,2.30
2019-01-09T12:34:48.150Z,2.40
2019-01-09T12:37:17.753Z,2.27
2019-01-09T12:39:47.343Z,1.90
2019-01-09T12:42:16.892Z,2.60
2019-01-09T12:44:46.515Z,2.13
2019-01-09T12:47:16.270Z,2.03
2019-01-09T12:49:45.823Z,2.30
2019-01-09T12:52:15.467Z,2.30
2019-01-09T12:54:45.413Z,2.03
2019-01-09T12:57:15.034Z,2.53
2019-01-09T12:59:44.655Z,2.37
2019-01-09T13:02:14.234Z,2.13
2019-01-09T13:04:43.936Z,2.37
2019-01-09T13:07:13.579Z,2.00
2019-01-09T13:09:43.257Z,2.10
2019-01-09T13:12:12.905Z,2.30
2019-01-09T13:14:42.472Z,2.47
2019-01-09T13:17:12.332Z,2.10
2019-01-09T13:19:43.636Z,2.30
2019-01-09T13:22:13.652Z,2.50
2019-01-09T13:24:43.253Z,3.00
2019-01-09T13:27:14.308Z,2.20
2019-01-09T13:29:44.116Z,2.53
2019-01-09T13:32:14.167Z,2.20
2019-01-09T13:34:43.748Z,2.70
2019-01-09T13:37:13.374Z,2.50
2019-01-09T13:40:02.321Z,2.97
2019-01-09T13:42:33.553Z,4.70
2019-01-09T13:45:03.828Z,3.23
2019-01-09T13:47:33.440Z,2.30
2019-01-09T13:50:03.708Z,2.23
2019-01-09T13:52:33.315Z,2.43
2019-01-09T13:55:03.068Z,1.87
2019-01-09T13:57:32.666Z,2.50
2019-01-09T14:00:02.306Z,2.00
2019-01-09T14:02:34.307Z,2.10
2019-01-09T14:05:06.246Z,2.70
2019-01-09T14:07:35.902Z,2.50
2019-01-09T14:10:11.013Z,1.93
2019-01-09T14:12:40.788Z,1.70
2019-01-09T14:15:15.347Z,1.60
2019-01-09T14:17:44.906Z,1.50
2019-01-09T14:20:15.514Z,1.80
2019-01-09T14:22:46.716Z,1.80
2019-01-09T14:25:18.413Z,2.10
2019-01-09T14:27:48.086Z,2.10
2019-01-09T14:30:22.015Z,1.73
2019-01-09T14:32:51.595Z,2.10
2019-01-09T14:35:21.508Z,2.00
2019-01-09T14:37:51.093Z,2.00
2019-01-09T14:40:22.063Z,2.37
2019-01-09T14:42:51.797Z,2.23
2019-01-09T14:45:21.551Z,2.30
2019-01-09T14:47:51.133Z,2.57
2019-01-09T14:50:24.107Z,2.40
2019-01-09T14:52:53.925Z,2.50
2019-01-09T14:55:23.742Z,3.10
2019-01-09T14:57:53.813Z,2.60
2019-01-09T15:00:26.588Z,2.53
2019-01-09T15:02:56.245Z,2.90
2019-01-09T15:05:25.980Z,2.63
2019-01-09T15:07:55.650Z,2.70
2019-01-09T15:10:28.243Z,2.60
2019-01-09T15:12:58.611Z,2.60
2019-01-09T15:15:28.931Z,2.73
2019-01-09T15:17:59.999Z,3.07
2019-01-09T15:20:29.598Z,2.60
2019-01-09T15:22:59.168Z,3.13
2019-01-09T15:25:28.937Z,2.80
2019-01-09T15:27:58.642Z,3.07
2019-01-09T15:30:30.405Z,3.10
2019-01-09T15:32:59.975Z,3.17
2019-01-09T15:35:29.673Z,3.73
2019-01-09T15:38:00.761Z,3.57
2019-01-09T15:40:31.238Z,2.70
2019-01-09T15:43:00.993Z,2.70
2019-01-09T15:45:30.708Z,2.80
2019-01-09T15:48:00.202Z,3.30
2019-01-09T15:50:30.084Z,2.87
2019-01-09T15:52:59.631Z,2.87
2019-01-09T15:55:29.261Z,3.03
2019-01-09T15:57:59.351Z,3.67
2019-01-09T16:00:33.614Z,3.27
2019-01-09T16:03:04.106Z,2.47
2019-01-09T16:05:33.916Z,2.70
2019-01-09T16:08:03.477Z,2.57
2019-01-09T16:10:33.238Z,2.77
2019-01-09T16:13:02.847Z,2.70
2019-01-09T16:15:32.858Z,2.50
2019-01-09T16:18:02.572Z,2.20
2019-01-09T16:20:32.227Z,2.33
2019-01-09T16:23:01.809Z,2.40
2019-01-09T16:25:31.368Z,2.40
2019-01-09T16:28:00.987Z,2.43
2019-01-09T16:30:35.036Z,2.60
2019-01-09T16:33:10.508Z,2.23
2019-01-09T16:35:40.055Z,2.13
2019-01-09T16:38:09.649Z,2.23
2019-01-09T16:40:39.280Z,2.50
2019-01-09T16:43:08.833Z,2.40
2019-01-09T16:45:38.479Z,2.50
2019-01-09T16:48:11.191Z,2.67
2019-01-09T16:50:43.672Z,2.27
2019-01-09T16:53:13.241Z,2.10
2019-01-09T16:55:42.848Z,2.00
2019-01-09T16:58:12.491Z,2.47
2019-01-09T17:00:44.744Z,3.23
2019-01-09T17:03:14.370Z,3.30
2019-01-09T17:05:43.982Z,2.80
2019-01-09T17:08:13.573Z,2.70
2019-01-09T17:10:43.245Z,2.73
2019-01-09T17:13:12.859Z,2.40
2019-01-09T17:15:42.510Z,3.40
2019-01-09T17:18:12.217Z,3.27
2019-01-09T17:20:47.731Z,3.00
2019-01-09T17:23:17.373Z,2.23
2019-01-09T17:25:54.335Z,2.77
2019-01-09T17:28:25.495Z,2.83
2019-01-09T17:30:55.308Z,2.43
2019-01-09T17:33:24.897Z,2.53
2019-01-09T17:35:54.564Z,2.60
2019-01-09T17:38:25.738Z,3.10
2019-01-09T17:40:55.554Z,3.00
2019-01-09T17:43:25.173Z,2.37
2019-01-09T17:45:54.761Z,2.30
2019-01-09T17:48:27.286Z,3.10
2019-01-09T17:50:56.953Z,3.10
2019-01-09T17:53:26.611Z,3.20
2019-01-09T17:55:56.195Z,2.57
2019-01-09T17:58:25.784Z,2.60
2019-01-09T18:00:55.408Z,1.77
2019-01-09T18:03:27.886Z,1.83
2019-01-09T18:05:57.800Z,2.40
2019-01-09T18:08:33.220Z,2.47
2019-01-09T18:11:02.852Z,2.70
2019-01-09T18:13:32.426Z,2.60
2019-01-09T18:16:02.004Z,3.00
2019-01-09T18:18:31.598Z,2.47
2019-01-09T18:21:01.485Z,3.07
2019-01-09T18:23:31.072Z,2.60
2019-01-09T18:26:00.681Z,2.53
2019-01-09T18:28:30.238Z,2.73
2019-01-09T18:31:05.927Z,2.60
2019-01-09T18:33:40.009Z,2.00
2019-01-09T18:36:14.034Z,2.90
2019-01-09T18:38:48.121Z,2.43
2019-01-09T18:41:22.155Z,2.13
2019-01-09T18:43:56.292Z,2.60
2019-01-09T18:46:30.307Z,2.53
2019-01-09T18:49:04.384Z,2.60
2019-01-09T18:51:38.404Z,4.50
2019-01-09T18:54:07.991Z,3.67
2019-01-09T18:56:37.579Z,2.60
2019-01-09T18:59:07.473Z,3.00
2019-01-09T19:01:39.829Z,3.47
2019-01-09T19:04:09.565Z,2.87
2019-01-09T19:06:38.998Z,2.77
2019-01-09T19:09:10.863Z,3.63
2019-01-09T19:11:40.549Z,3.80
2019-01-09T19:14:10.269Z,4.00
2019-01-09T19:16:39.851Z,2.73
2019-01-09T19:19:12.633Z,3.00
2019-01-09T19:21:42.668Z,3.10
2019-01-09T19:24:12.413Z,2.93
2019-01-09T19:26:43.523Z,3.40
2019-01-09T19:29:13.337Z,3.03
2019-01-09T19:31:43.227Z,2.40
2019-01-09T19:34:14.761Z,2.47
2019-01-09T19:36:44.490Z,3.57
2019-01-09T19:39:14.202Z,2.90
2019-01-09T19:41:44.264Z,3.10
2019-01-09T19:44:13.868Z,3.53
2019-01-09T19:46:43.699Z,4.17
2019-01-09T19:49:13.357Z,3.63
2019-01-09T19:51:42.936Z,3.73
2019-01-09T19:54:12.539Z,4.23
2019-01-09T19:56:42.767Z,4.30
2019-01-09T19:59:12.364Z,3.33
2019-01-09T20:01:41.960Z,3.80
2019-01-09T20:04:11.533Z,3.23
2019-01-09T20:06:41.117Z,3.57
2019-01-09T20:09:12.623Z,2.90
2019-01-09T20:11:42.619Z,3.07
2019-01-09T20:14:12.462Z,2.80
2019-01-09T20:16:42.022Z,2.40
2019-01-09T20:19:11.725Z,2.57
2019-01-09T20:21:41.347Z,3.03
2019-01-09T20:24:10.979Z,2.87
2019-01-09T20:26:40.746Z,3.00
2019-01-09T20:29:10.573Z,2.63
2019-01-09T20:31:40.136Z,2.93
2019-01-09T20:34:09.716Z,3.40
2019-01-09T20:36:39.382Z,3.10
2019-01-09T20:39:09.757Z,2.83
2019-01-09T20:41:39.396Z,2.57
2019-01-09T20:44:09.155Z,3.03
2019-01-09T20:46:38.768Z,2.63
2019-01-09T20:49:08.465Z,3.17
2019-01-09T20:51:57.299Z,2.60
2019-01-09T20:54:26.897Z,2.77
2019-01-09T20:56:56.432Z,2.50
2019-01-09T20:59:27.533Z,2.10
2019-01-09T21:01:57.091Z,2.37
2019-01-09T21:04:26.731Z,2.33
2019-01-09T21:06:56.377Z,2.33
2019-01-09T21:09:26.262Z,2.60
2019-01-09T21:11:55.850Z,2.50
2019-01-09T21:14:25.435Z,2.50
2019-01-09T21:16:54.971Z,2.87
2019-01-09T21:19:24.552Z,2.70
2019-01-09T21:21:56.824Z,2.60
2019-01-09T21:24:26.875Z,2.77
2019-01-09T21:26:56.675Z,2.50
2019-01-09T21:29:26.415Z,2.73
2019-01-09T21:32:15.353Z,2.80
2019-01-09T21:34:45.974Z,2.53
2019-01-09T21:37:16.824Z,2.53
2019-01-09T21:39:46.840Z,2.90
2019-01-09T21:42:16.435Z,2.60
2019-01-09T21:44:47.288Z,2.50
2019-01-09T21:47:17.101Z,3.10
2019-01-09T21:49:46.664Z,2.53
2019-01-09T21:52:16.229Z,2.87
2019-01-09T21:54:45.817Z,3.00
2019-01-09T21:57:15.374Z,3.17
2019-01-09T21:59:45.037Z,3.23
2019-01-09T22:02:17.060Z,3.03
2019-01-09T22:04:46.638Z,3.07
2019-01-09T22:07:16.213Z,3.03
2019-01-09T22:09:46.219Z,3.10
2019-01-09T22:12:16.352Z,3.20
2019-01-09T22:14:46.016Z,3.07
2019-01-09T22:17:17.551Z,3.00
2019-01-09T22:19:47.310Z,2.73
2019-01-09T22:22:16.960Z,2.97
2019-01-09T22:24:48.296Z,2.90
2019-01-09T22:27:19.320Z,3.53
2019-01-09T22:29:48.879Z,2.50
2019-01-09T22:32:18.939Z,3.43
2019-01-09T22:34:49.060Z,3.97
2019-01-09T22:37:18.651Z,3.50
2019-01-09T22:39:48.304Z,3.00
2019-01-09T22:42:20.025Z,3.33
2019-01-09T22:44:49.413Z,3.53
2019-01-09T22:47:19.024Z,3.70
2019-01-09T22:49:48.620Z,3.03
2019-01-09T22:52:19.231Z,3.60
2019-01-09T22:54:49.016Z,3.60
2019-01-09T22:57:18.577Z,3.00
2019-01-09T22:59:49.696Z,3.60
2019-01-09T23:02:20.888Z,2.93
2019-01-09T23:04:51.992Z,2.93
2019-01-09T23:07:21.577Z,3.50
2019-01-09T23:09:51.239Z,3.27
2019-01-09T23:12:22.940Z,3.37
2019-01-09T23:14:52.533Z,3.57
2019-01-09T23:17:22.211Z,3.17
2019-01-09T23:19:51.814Z,3.33
2019-01-09T23:22:21.457Z,3.40
2019-01-09T23:25:10.519Z,3.50
2019-01-09T23:27:40.128Z,3.10
2019-01-09T23:30:12.906Z,3.37
2019-01-09T23:32:43.061Z,3.33
2019-01-09T23:35:14.566Z,2.97
2019-01-09T23:37:44.279Z,3.37
2019-01-09T23:40:16.869Z,3.00
2019-01-09T23:42:46.795Z,3.50
2019-01-09T23:45:16.710Z,2.83
2019-01-09T23:47:46.348Z,3.10
2019-01-09T23:50:17.778Z,3.20
2019-01-09T23:52:47.363Z,3.63
2019-01-09T23:55:22.985Z,2.97
2019-01-09T23:57:52.574Z,2.90
